sensor_id;sensor_type;location;lat;lon;timestamp;temperature;humidity
42913;DHT22;50720;54.324;18.558;2023-11-22T00:01:22;-1.40;99.90
42913;DHT22;50720;54.324;18.558;2023-11-22T00:04:08;-1.50;1.00
42913;DHT22;50720;54.324;18.558;2023-11-22T00:06:53;-1.50;1.00
42913;DHT22;50720;54.324;18.558;2023-11-22T00:09:36;-1.50;1.00
42913;DHT22;50720;54.324;18.558;2023-11-22T00:12:19;-1.40;1.00
42913;DHT22;50720;54.324;18.558;2023-11-22T00:15:04;-1.50;1.00
42913;DHT22;50720;54.324;18.558;2023-11-22T00:17:49;-1.40;99.90
42913;DHT22;50720;54.324;18.558;2023-11-22T00:20:33;-1.30;89.50
42913;DHT22;50720;54.324;18.558;2023-11-22T00:23:18;-1.40;1.00
42913;DHT22;50720;54.324;18.558;2023-11-22T00:26:01;-1.40;1.00
42913;DHT22;50720;54.324;18.558;2023-11-22T00:28:45;-1.30;33.40
42913;DHT22;50720;54.324;18.558;2023-11-22T00:31:28;-1.30;57.30
42913;DHT22;50720;54.324;18.558;2023-11-22T00:34:11;-1.30;99.90
42913;DHT22;50720;54.324;18.558;2023-11-22T00:36:58;-1.20;99.90
42913;DHT22;50720;54.324;18.558;2023-11-22T00:39:43;-1.20;1.00
42913;DHT22;50720;54.324;18.558;2023-11-22T00:42:26;-1.10;1.00
42913;DHT22;50720;54.324;18.558;2023-11-22T00:45:10;-1.10;1.00
42913;DHT22;50720;54.324;18.558;2023-11-22T00:47:54;-0.90;1.00
42913;DHT22;50720;54.324;18.558;2023-11-22T00:50:38;-1.10;1.00
42913;DHT22;50720;54.324;18.558;2023-11-22T00:53:22;-1.10;1.00
42913;DHT22;50720;54.324;18.558;2023-11-22T00:56:07;-1.00;99.90
42913;DHT22;50720;54.324;18.558;2023-11-22T00:58:50;-1.00;99.90
42913;DHT22;50720;54.324;18.558;2023-11-22T01:04:18;-0.90;99.90
42913;DHT22;50720;54.324;18.558;2023-11-22T01:07:02;-0.90;99.90
42913;DHT22;50720;54.324;18.558;2023-11-22T01:09:46;-0.90;1.00
42913;DHT22;50720;54.324;18.558;2023-11-22T01:12:31;-0.90;1.00
42913;DHT22;50720;54.324;18.558;2023-11-22T01:15:14;-0.90;1.00
42913;DHT22;50720;54.324;18.558;2023-11-22T01:17:58;-0.70;1.00
42913;DHT22;50720;54.324;18.558;2023-11-22T01:20:43;-0.90;99.90
42913;DHT22;50720;54.324;18.558;2023-11-22T01:23:27;-0.90;1.00
42913;DHT22;50720;54.324;18.558;2023-11-22T01:26:11;-0.90;99.90
42913;DHT22;50720;54.324;18.558;2023-11-22T01:28:56;-1.00;1.00
42913;DHT22;50720;54.324;18.558;2023-11-22T01:31:40;-1.00;1.00
42913;DHT22;50720;54.324;18.558;2023-11-22T01:34:25;-1.10;1.00
42913;DHT22;50720;54.324;18.558;2023-11-22T01:37:09;-1.10;1.00
42913;DHT22;50720;54.324;18.558;2023-11-22T01:39:52;-1.10;1.00
42913;DHT22;50720;54.324;18.558;2023-11-22T01:42:37;-1.00;1.00
42913;DHT22;50720;54.324;18.558;2023-11-22T01:45:23;-1.00;1.00
42913;DHT22;50720;54.324;18.558;2023-11-22T01:48:07;-1.00;1.00
42913;DHT22;50720;54.324;18.558;2023-11-22T01:50:53;-0.90;1.00
42913;DHT22;50720;54.324;18.558;2023-11-22T01:53:37;-0.90;1.00
42913;DHT22;50720;54.324;18.558;2023-11-22T01:56:21;-0.80;1.00
42913;DHT22;50720;54.324;18.558;2023-11-22T01:59:05;-0.80;1.00
42913;DHT22;50720;54.324;18.558;2023-11-22T02:01:51;-0.80;1.00
42913;DHT22;50720;54.324;18.558;2023-11-22T02:04:34;-0.80;1.00
42913;DHT22;50720;54.324;18.558;2023-11-22T02:07:19;-0.80;1.00
42913;DHT22;50720;54.324;18.558;2023-11-22T02:10:05;-0.80;1.00
42913;DHT22;50720;54.324;18.558;2023-11-22T02:12:49;-0.70;1.00
42913;DHT22;50720;54.324;18.558;2023-11-22T02:15:34;-0.60;1.00
42913;DHT22;50720;54.324;18.558;2023-11-22T02:18:19;-0.60;99.90
42913;DHT22;50720;54.324;18.558;2023-11-22T02:21:02;-0.50;99.90
42913;DHT22;50720;54.324;18.558;2023-11-22T02:23:47;-0.50;99.90
42913;DHT22;50720;54.324;18.558;2023-11-22T02:26:30;-0.60;99.90
42913;DHT22;50720;54.324;18.558;2023-11-22T02:29:14;-0.50;1.00
42913;DHT22;50720;54.324;18.558;2023-11-22T02:31:57;-0.60;1.00
42913;DHT22;50720;54.324;18.558;2023-11-22T02:34:41;-0.50;1.00
42913;DHT22;50720;54.324;18.558;2023-11-22T02:37:25;-0.50;99.90
42913;DHT22;50720;54.324;18.558;2023-11-22T02:40:17;-0.40;99.90
42913;DHT22;50720;54.324;18.558;2023-11-22T02:43:01;-0.40;99.90
42913;DHT22;50720;54.324;18.558;2023-11-22T02:45:49;-0.50;99.90
42913;DHT22;50720;54.324;18.558;2023-11-22T02:48:33;-0.50;99.90
42913;DHT22;50720;54.324;18.558;2023-11-22T02:51:16;-0.60;99.90
42913;DHT22;50720;54.324;18.558;2023-11-22T02:54:00;-0.60;1.00
42913;DHT22;50720;54.324;18.558;2023-11-22T02:56:45;-0.70;1.00
42913;DHT22;50720;54.324;18.558;2023-11-22T02:59:29;-0.80;1.00
42913;DHT22;50720;54.324;18.558;2023-11-22T03:02:13;-0.80;26.40
42913;DHT22;50720;54.324;18.558;2023-11-22T03:04:57;-0.60;99.90
42913;DHT22;50720;54.324;18.558;2023-11-22T03:07:40;-0.70;99.90
42913;DHT22;50720;54.324;18.558;2023-11-22T03:10:24;-0.70;99.90
42913;DHT22;50720;54.324;18.558;2023-11-22T03:13:10;-0.70;99.90
42913;DHT22;50720;54.324;18.558;2023-11-22T03:15:53;-0.70;99.90
42913;DHT22;50720;54.324;18.558;2023-11-22T03:18:37;-0.70;99.90
42913;DHT22;50720;54.324;18.558;2023-11-22T03:21:21;-0.70;99.90
42913;DHT22;50720;54.324;18.558;2023-11-22T03:24:07;-0.80;99.90
42913;DHT22;50720;54.324;18.558;2023-11-22T03:26:50;-0.80;99.90
42913;DHT22;50720;54.324;18.558;2023-11-22T03:29:36;-0.90;99.90
42913;DHT22;50720;54.324;18.558;2023-11-22T03:32:20;-1.00;99.90
42913;DHT22;50720;54.324;18.558;2023-11-22T03:35:04;-1.00;99.90
42913;DHT22;50720;54.324;18.558;2023-11-22T03:37:48;-1.00;99.90
42913;DHT22;50720;54.324;18.558;2023-11-22T03:40:32;-1.00;1.00
42913;DHT22;50720;54.324;18.558;2023-11-22T03:43:15;-1.00;1.00
42913;DHT22;50720;54.324;18.558;2023-11-22T03:46:00;-1.00;1.00
42913;DHT22;50720;54.324;18.558;2023-11-22T03:48:44;-1.10;1.00
42913;DHT22;50720;54.324;18.558;2023-11-22T03:51:27;-1.10;1.00
42913;DHT22;50720;54.324;18.558;2023-11-22T03:54:11;-1.00;1.00
42913;DHT22;50720;54.324;18.558;2023-11-22T03:56:54;-1.10;1.00
42913;DHT22;50720;54.324;18.558;2023-11-22T03:59:40;-1.10;1.00
42913;DHT22;50720;54.324;18.558;2023-11-22T04:02:25;-0.90;1.00
42913;DHT22;50720;54.324;18.558;2023-11-22T04:05:10;-0.90;1.00
42913;DHT22;50720;54.324;18.558;2023-11-22T04:07:54;-0.90;1.00
42913;DHT22;50720;54.324;18.558;2023-11-22T04:10:38;-0.80;1.00
42913;DHT22;50720;54.324;18.558;2023-11-22T04:13:21;-0.80;1.00
42913;DHT22;50720;54.324;18.558;2023-11-22T04:16:07;-0.70;1.00
42913;DHT22;50720;54.324;18.558;2023-11-22T04:18:55;-0.70;1.00
42913;DHT22;50720;54.324;18.558;2023-11-22T04:21:39;-0.60;1.00
42913;DHT22;50720;54.324;18.558;2023-11-22T04:24:23;-0.60;1.00
42913;DHT22;50720;54.324;18.558;2023-11-22T04:27:06;-0.60;1.00
42913;DHT22;50720;54.324;18.558;2023-11-22T04:29:49;-0.60;1.00
42913;DHT22;50720;54.324;18.558;2023-11-22T04:32:33;-0.50;1.00
42913;DHT22;50720;54.324;18.558;2023-11-22T04:35:19;-0.50;1.00
42913;DHT22;50720;54.324;18.558;2023-11-22T04:38:03;-0.40;1.00
42913;DHT22;50720;54.324;18.558;2023-11-22T04:40:46;-0.40;99.90
42913;DHT22;50720;54.324;18.558;2023-11-22T04:43:30;-0.40;99.90
42913;DHT22;50720;54.324;18.558;2023-11-22T04:46:13;-0.40;99.90
42913;DHT22;50720;54.324;18.558;2023-11-22T04:48:57;-0.60;1.00
42913;DHT22;50720;54.324;18.558;2023-11-22T04:51:42;-0.60;1.00
42913;DHT22;50720;54.324;18.558;2023-11-22T04:54:26;-0.50;1.00
42913;DHT22;50720;54.324;18.558;2023-11-22T04:57:09;-0.60;1.00
42913;DHT22;50720;54.324;18.558;2023-11-22T04:59:53;-0.50;1.00
42913;DHT22;50720;54.324;18.558;2023-11-22T05:02:37;-0.50;1.00
42913;DHT22;50720;54.324;18.558;2023-11-22T05:05:22;-0.60;9.00
42913;DHT22;50720;54.324;18.558;2023-11-22T05:08:07;-0.60;37.80
42913;DHT22;50720;54.324;18.558;2023-11-22T05:10:51;-0.60;66.90
42913;DHT22;50720;54.324;18.558;2023-11-22T05:13:36;-0.60;61.10
42913;DHT22;50720;54.324;18.558;2023-11-22T05:16:19;-0.50;87.60
42913;DHT22;50720;54.324;18.558;2023-11-22T05:19:03;-0.50;78.50
42913;DHT22;50720;54.324;18.558;2023-11-22T05:21:47;-0.40;81.50
42913;DHT22;50720;54.324;18.558;2023-11-22T05:24:32;-0.50;92.40
42913;DHT22;50720;54.324;18.558;2023-11-22T05:27:17;-0.50;80.30
42913;DHT22;50720;54.324;18.558;2023-11-22T05:30:00;-0.50;99.90
42913;DHT22;50720;54.324;18.558;2023-11-22T05:32:44;-0.50;99.90
42913;DHT22;50720;54.324;18.558;2023-11-22T05:35:27;-0.50;99.90
42913;DHT22;50720;54.324;18.558;2023-11-22T05:38:11;-0.50;99.90
42913;DHT22;50720;54.324;18.558;2023-11-22T05:40:56;-0.50;99.90
42913;DHT22;50720;54.324;18.558;2023-11-22T05:43:39;-0.50;99.90
42913;DHT22;50720;54.324;18.558;2023-11-22T05:46:25;-0.50;99.90
42913;DHT22;50720;54.324;18.558;2023-11-22T05:49:08;-0.50;99.90
42913;DHT22;50720;54.324;18.558;2023-11-22T05:51:53;-0.60;99.90
42913;DHT22;50720;54.324;18.558;2023-11-22T05:54:37;-0.60;99.90
42913;DHT22;50720;54.324;18.558;2023-11-22T05:57:22;-0.60;99.90
42913;DHT22;50720;54.324;18.558;2023-11-22T06:00:06;-0.60;99.90
42913;DHT22;50720;54.324;18.558;2023-11-22T06:02:50;-0.70;99.90
42913;DHT22;50720;54.324;18.558;2023-11-22T06:05:34;-0.70;99.90
42913;DHT22;50720;54.324;18.558;2023-11-22T06:08:18;-0.70;99.90
42913;DHT22;50720;54.324;18.558;2023-11-22T06:11:02;-0.70;99.90
42913;DHT22;50720;54.324;18.558;2023-11-22T06:13:47;-0.70;99.90
42913;DHT22;50720;54.324;18.558;2023-11-22T06:16:31;-0.70;99.90
42913;DHT22;50720;54.324;18.558;2023-11-22T06:19:15;-0.80;99.90
42913;DHT22;50720;54.324;18.558;2023-11-22T06:21:58;-0.80;99.90
42913;DHT22;50720;54.324;18.558;2023-11-22T06:24:43;-0.70;99.90
42913;DHT22;50720;54.324;18.558;2023-11-22T06:30:16;-0.80;99.90
42913;DHT22;50720;54.324;18.558;2023-11-22T06:32:59;-0.70;99.90
42913;DHT22;50720;54.324;18.558;2023-11-22T06:35:43;-0.70;99.90
42913;DHT22;50720;54.324;18.558;2023-11-22T06:38:27;-0.70;99.90
42913;DHT22;50720;54.324;18.558;2023-11-22T06:41:11;-0.70;99.90
42913;DHT22;50720;54.324;18.558;2023-11-22T06:43:55;-0.70;99.90
42913;DHT22;50720;54.324;18.558;2023-11-22T06:46:39;-0.70;99.90
42913;DHT22;50720;54.324;18.558;2023-11-22T06:49:23;-0.70;99.90
42913;DHT22;50720;54.324;18.558;2023-11-22T06:52:07;-0.60;99.90
42913;DHT22;50720;54.324;18.558;2023-11-22T06:54:51;-0.60;99.90
42913;DHT22;50720;54.324;18.558;2023-11-22T06:57:34;-0.60;99.90
42913;DHT22;50720;54.324;18.558;2023-11-22T07:00:19;-0.60;99.90
42913;DHT22;50720;54.324;18.558;2023-11-22T07:03:04;-0.60;99.90
42913;DHT22;50720;54.324;18.558;2023-11-22T07:05:48;-0.50;99.90
42913;DHT22;50720;54.324;18.558;2023-11-22T07:08:32;-0.50;99.90
42913;DHT22;50720;54.324;18.558;2023-11-22T07:11:25;-0.50;99.90
42913;DHT22;50720;54.324;18.558;2023-11-22T07:14:12;-0.30;99.90
42913;DHT22;50720;54.324;18.558;2023-11-22T07:16:56;-0.30;99.90
42913;DHT22;50720;54.324;18.558;2023-11-22T07:19:41;-0.20;99.90
42913;DHT22;50720;54.324;18.558;2023-11-22T07:22:28;-0.20;99.90
42913;DHT22;50720;54.324;18.558;2023-11-22T07:25:12;0.00;99.90
42913;DHT22;50720;54.324;18.558;2023-11-22T07:28:00;0.00;99.90
42913;DHT22;50720;54.324;18.558;2023-11-22T07:30:44;0.20;99.90
42913;DHT22;50720;54.324;18.558;2023-11-22T07:33:30;0.20;99.90
42913;DHT22;50720;54.324;18.558;2023-11-22T07:36:15;0.30;99.90
42913;DHT22;50720;54.324;18.558;2023-11-22T07:38:59;0.30;99.90
42913;DHT22;50720;54.324;18.558;2023-11-22T07:41:42;0.30;99.90
42913;DHT22;50720;54.324;18.558;2023-11-22T07:44:26;0.30;99.90
42913;DHT22;50720;54.324;18.558;2023-11-22T07:47:09;0.30;99.90
42913;DHT22;50720;54.324;18.558;2023-11-22T07:49:53;0.30;99.90
42913;DHT22;50720;54.324;18.558;2023-11-22T07:52:39;0.30;99.90
42913;DHT22;50720;54.324;18.558;2023-11-22T07:55:24;0.40;99.90
42913;DHT22;50720;54.324;18.558;2023-11-22T07:58:08;0.40;99.90
42913;DHT22;50720;54.324;18.558;2023-11-22T08:00:53;0.40;99.90
42913;DHT22;50720;54.324;18.558;2023-11-22T08:03:39;0.50;99.90
42913;DHT22;50720;54.324;18.558;2023-11-22T08:06:29;0.50;99.90
42913;DHT22;50720;54.324;18.558;2023-11-22T08:09:14;0.40;99.90
42913;DHT22;50720;54.324;18.558;2023-11-22T08:11:58;0.40;99.90
42913;DHT22;50720;54.324;18.558;2023-11-22T08:17:28;0.40;99.90
42913;DHT22;50720;54.324;18.558;2023-11-22T08:20:11;0.40;99.90
42913;DHT22;50720;54.324;18.558;2023-11-22T08:23:00;0.50;99.90
42913;DHT22;50720;54.324;18.558;2023-11-22T08:25:45;0.60;99.90
42913;DHT22;50720;54.324;18.558;2023-11-22T08:28:30;0.60;99.90
42913;DHT22;50720;54.324;18.558;2023-11-22T08:31:13;0.70;99.90
42913;DHT22;50720;54.324;18.558;2023-11-22T08:33:58;0.80;99.90
42913;DHT22;50720;54.324;18.558;2023-11-22T08:36:42;0.80;99.90
42913;DHT22;50720;54.324;18.558;2023-11-22T08:39:25;0.90;99.90
42913;DHT22;50720;54.324;18.558;2023-11-22T08:42:10;0.90;99.90
42913;DHT22;50720;54.324;18.558;2023-11-22T08:44:58;1.10;99.90
42913;DHT22;50720;54.324;18.558;2023-11-22T08:47:41;1.10;99.90
42913;DHT22;50720;54.324;18.558;2023-11-22T08:50:26;1.10;99.90
42913;DHT22;50720;54.324;18.558;2023-11-22T08:53:10;1.20;99.90
42913;DHT22;50720;54.324;18.558;2023-11-22T08:55:54;1.30;99.90
42913;DHT22;50720;54.324;18.558;2023-11-22T08:58:39;1.30;99.90
42913;DHT22;50720;54.324;18.558;2023-11-22T09:01:23;1.40;99.90
42913;DHT22;50720;54.324;18.558;2023-11-22T09:04:07;1.50;99.90
42913;DHT22;50720;54.324;18.558;2023-11-22T09:06:52;1.50;99.90
42913;DHT22;50720;54.324;18.558;2023-11-22T09:09:38;1.50;99.90
42913;DHT22;50720;54.324;18.558;2023-11-22T09:12:23;1.50;99.90
42913;DHT22;50720;54.324;18.558;2023-11-22T09:15:09;1.60;99.90
42913;DHT22;50720;54.324;18.558;2023-11-22T09:17:55;1.60;99.90
42913;DHT22;50720;54.324;18.558;2023-11-22T09:20:39;1.70;99.90
42913;DHT22;50720;54.324;18.558;2023-11-22T09:23:26;1.90;99.90
42913;DHT22;50720;54.324;18.558;2023-11-22T09:26:10;1.90;99.90
42913;DHT22;50720;54.324;18.558;2023-11-22T09:28:53;2.00;99.90
42913;DHT22;50720;54.324;18.558;2023-11-22T09:31:38;2.10;99.90
42913;DHT22;50720;54.324;18.558;2023-11-22T09:34:21;2.00;99.90
42913;DHT22;50720;54.324;18.558;2023-11-22T09:37:04;2.20;99.90
42913;DHT22;50720;54.324;18.558;2023-11-22T09:39:48;2.20;99.90
42913;DHT22;50720;54.324;18.558;2023-11-22T09:42:32;2.30;99.90
42913;DHT22;50720;54.324;18.558;2023-11-22T09:45:16;2.40;99.90
42913;DHT22;50720;54.324;18.558;2023-11-22T09:48:03;2.40;99.90
42913;DHT22;50720;54.324;18.558;2023-11-22T09:50:56;2.40;99.90
42913;DHT22;50720;54.324;18.558;2023-11-22T09:53:48;2.50;99.90
42913;DHT22;50720;54.324;18.558;2023-11-22T09:56:33;2.50;99.90
42913;DHT22;50720;54.324;18.558;2023-11-22T09:59:19;2.60;99.90
42913;DHT22;50720;54.324;18.558;2023-11-22T10:02:06;2.70;99.90
42913;DHT22;50720;54.324;18.558;2023-11-22T10:04:51;2.80;99.90
42913;DHT22;50720;54.324;18.558;2023-11-22T10:07:34;2.90;99.90
42913;DHT22;50720;54.324;18.558;2023-11-22T10:10:19;2.80;99.90
42913;DHT22;50720;54.324;18.558;2023-11-22T10:13:04;3.00;99.90
42913;DHT22;50720;54.324;18.558;2023-11-22T10:15:48;3.10;99.90
42913;DHT22;50720;54.324;18.558;2023-11-22T10:18:31;3.40;99.90
42913;DHT22;50720;54.324;18.558;2023-11-22T10:21:24;3.50;99.90
42913;DHT22;50720;54.324;18.558;2023-11-22T10:24:08;3.70;99.90
42913;DHT22;50720;54.324;18.558;2023-11-22T10:26:51;3.90;99.90
42913;DHT22;50720;54.324;18.558;2023-11-22T10:29:35;3.80;99.90
42913;DHT22;50720;54.324;18.558;2023-11-22T10:32:19;4.10;99.90
42913;DHT22;50720;54.324;18.558;2023-11-22T10:35:03;4.20;99.90
42913;DHT22;50720;54.324;18.558;2023-11-22T10:37:48;4.40;99.90
42913;DHT22;50720;54.324;18.558;2023-11-22T10:40:32;4.40;99.90
42913;DHT22;50720;54.324;18.558;2023-11-22T10:43:16;4.40;99.90
42913;DHT22;50720;54.324;18.558;2023-11-22T10:45:59;4.60;1.00
42913;DHT22;50720;54.324;18.558;2023-11-22T10:48:44;4.40;1.00
42913;DHT22;50720;54.324;18.558;2023-11-22T10:51:31;4.20;1.00
42913;DHT22;50720;54.324;18.558;2023-11-22T10:54:16;4.00;99.90
42913;DHT22;50720;54.324;18.558;2023-11-22T10:57:02;4.00;99.90
42913;DHT22;50720;54.324;18.558;2023-11-22T10:59:53;3.80;84.10
42913;DHT22;50720;54.324;18.558;2023-11-22T11:02:41;3.70;96.30
42913;DHT22;50720;54.324;18.558;2023-11-22T11:05:28;3.70;99.90
42913;DHT22;50720;54.324;18.558;2023-11-22T11:08:14;3.60;99.90
42913;DHT22;50720;54.324;18.558;2023-11-22T11:11:04;3.50;99.90
42913;DHT22;50720;54.324;18.558;2023-11-22T11:13:50;3.50;99.90
42913;DHT22;50720;54.324;18.558;2023-11-22T11:16:37;3.90;99.90
42913;DHT22;50720;54.324;18.558;2023-11-22T11:19:23;4.60;1.00
42913;DHT22;50720;54.324;18.558;2023-11-22T11:22:08;6.30;99.90
42913;DHT22;50720;54.324;18.558;2023-11-22T11:25:01;6.40;99.90
42913;DHT22;50720;54.324;18.558;2023-11-22T11:27:57;6.90;33.10
42913;DHT22;50720;54.324;18.558;2023-11-22T11:30:43;7.40;1.00
42913;DHT22;50720;54.324;18.558;2023-11-22T11:33:27;7.60;1.00
42913;DHT22;50720;54.324;18.558;2023-11-22T11:36:21;7.60;99.90
42913;DHT22;50720;54.324;18.558;2023-11-22T11:39:06;7.90;99.90
42913;DHT22;50720;54.324;18.558;2023-11-22T11:42:08;7.90;99.90
42913;DHT22;50720;54.324;18.558;2023-11-22T11:45:06;8.40;92.40
42913;DHT22;50720;54.324;18.558;2023-11-22T11:47:52;8.30;1.00
42913;DHT22;50720;54.324;18.558;2023-11-22T11:50:35;8.10;76.90
42913;DHT22;50720;54.324;18.558;2023-11-22T11:53:19;8.30;99.90
42913;DHT22;50720;54.324;18.558;2023-11-22T11:56:03;8.10;99.90
42913;DHT22;50720;54.324;18.558;2023-11-22T11:58:48;8.50;1.00
42913;DHT22;50720;54.324;18.558;2023-11-22T12:01:34;8.60;55.20
42913;DHT22;50720;54.324;18.558;2023-11-22T12:04:17;8.90;1.00
42913;DHT22;50720;54.324;18.558;2023-11-22T12:07:01;9.80;99.90
42913;DHT22;50720;54.324;18.558;2023-11-22T12:09:44;10.00;1.00
42913;DHT22;50720;54.324;18.558;2023-11-22T12:12:28;9.80;1.00
42913;DHT22;50720;54.324;18.558;2023-11-22T12:15:12;9.10;1.00
42913;DHT22;50720;54.324;18.558;2023-11-22T12:17:58;9.00;1.00
42913;DHT22;50720;54.324;18.558;2023-11-22T12:20:54;8.20;99.90
42913;DHT22;50720;54.324;18.558;2023-11-22T12:23:39;8.30;75.90
42913;DHT22;50720;54.324;18.558;2023-11-22T12:26:23;7.30;99.90
42913;DHT22;50720;54.324;18.558;2023-11-22T12:29:06;6.90;1.00
42913;DHT22;50720;54.324;18.558;2023-11-22T12:31:51;6.90;1.00
42913;DHT22;50720;54.324;18.558;2023-11-22T12:34:39;6.70;9.80
42913;DHT22;50720;54.324;18.558;2023-11-22T12:37:22;6.80;65.10
42913;DHT22;50720;54.324;18.558;2023-11-22T12:40:09;6.50;76.80
42913;DHT22;50720;54.324;18.558;2023-11-22T12:42:54;5.90;99.90
42913;DHT22;50720;54.324;18.558;2023-11-22T12:45:37;5.90;99.90
42913;DHT22;50720;54.324;18.558;2023-11-22T12:48:25;5.60;73.80
42913;DHT22;50720;54.324;18.558;2023-11-22T12:51:16;5.10;37.20
42913;DHT22;50720;54.324;18.558;2023-11-22T12:54:04;4.70;99.90
42913;DHT22;50720;54.324;18.558;2023-11-22T12:56:49;4.70;99.90
42913;DHT22;50720;54.324;18.558;2023-11-22T12:59:36;4.40;1.00
42913;DHT22;50720;54.324;18.558;2023-11-22T13:02:19;4.00;91.30
42913;DHT22;50720;54.324;18.558;2023-11-22T13:05:04;3.70;99.90
42913;DHT22;50720;54.324;18.558;2023-11-22T13:07:54;3.50;1.00
42913;DHT22;50720;54.324;18.558;2023-11-22T13:10:38;3.40;99.90
42913;DHT22;50720;54.324;18.558;2023-11-22T13:13:22;3.40;99.90
42913;DHT22;50720;54.324;18.558;2023-11-22T13:18:52;3.50;99.90
42913;DHT22;50720;54.324;18.558;2023-11-22T13:21:35;3.60;99.90
42913;DHT22;50720;54.324;18.558;2023-11-22T13:24:20;3.80;51.60
42913;DHT22;50720;54.324;18.558;2023-11-22T13:27:03;3.90;1.00
42913;DHT22;50720;54.324;18.558;2023-11-22T13:29:47;4.10;1.00
42913;DHT22;50720;54.324;18.558;2023-11-22T13:32:30;4.00;1.00
42913;DHT22;50720;54.324;18.558;2023-11-22T13:35:14;3.80;1.00
42913;DHT22;50720;54.324;18.558;2023-11-22T13:38:00;3.60;10.50
42913;DHT22;50720;54.324;18.558;2023-11-22T13:40:45;3.40;99.90
42913;DHT22;50720;54.324;18.558;2023-11-22T13:43:29;3.40;99.90
42913;DHT22;50720;54.324;18.558;2023-11-22T13:46:13;3.10;99.90
42913;DHT22;50720;54.324;18.558;2023-11-22T13:48:57;3.10;99.90
42913;DHT22;50720;54.324;18.558;2023-11-22T13:51:41;3.10;99.90
42913;DHT22;50720;54.324;18.558;2023-11-22T13:54:25;3.00;99.90
42913;DHT22;50720;54.324;18.558;2023-11-22T13:57:09;3.00;99.90
42913;DHT22;50720;54.324;18.558;2023-11-22T13:59:53;3.00;1.00
42913;DHT22;50720;54.324;18.558;2023-11-22T14:02:37;2.90;1.00
42913;DHT22;50720;54.324;18.558;2023-11-22T14:05:21;2.90;1.00
42913;DHT22;50720;54.324;18.558;2023-11-22T14:08:05;2.90;1.00
42913;DHT22;50720;54.324;18.558;2023-11-22T14:10:49;2.70;1.00
42913;DHT22;50720;54.324;18.558;2023-11-22T14:13:34;2.70;1.00
42913;DHT22;50720;54.324;18.558;2023-11-22T14:16:18;2.70;1.00
42913;DHT22;50720;54.324;18.558;2023-11-22T14:19:01;2.60;1.00
42913;DHT22;50720;54.324;18.558;2023-11-22T14:21:48;2.60;1.00
42913;DHT22;50720;54.324;18.558;2023-11-22T14:24:31;2.60;1.00
42913;DHT22;50720;54.324;18.558;2023-11-22T14:27:19;2.50;4.10
42913;DHT22;50720;54.324;18.558;2023-11-22T14:30:05;2.50;26.30
42913;DHT22;50720;54.324;18.558;2023-11-22T14:32:49;2.40;30.80
42913;DHT22;50720;54.324;18.558;2023-11-22T14:35:33;2.30;61.40
42913;DHT22;50720;54.324;18.558;2023-11-22T14:38:19;2.30;62.20
42913;DHT22;50720;54.324;18.558;2023-11-22T14:41:04;2.30;82.30
42913;DHT22;50720;54.324;18.558;2023-11-22T14:43:48;2.30;97.80
42913;DHT22;50720;54.324;18.558;2023-11-22T14:46:33;2.20;99.90
42913;DHT22;50720;54.324;18.558;2023-11-22T14:49:18;2.20;99.90
42913;DHT22;50720;54.324;18.558;2023-11-22T14:52:03;2.20;99.90
42913;DHT22;50720;54.324;18.558;2023-11-22T14:54:47;2.20;99.90
42913;DHT22;50720;54.324;18.558;2023-11-22T14:57:32;2.20;99.90
42913;DHT22;50720;54.324;18.558;2023-11-22T15:00:16;2.10;99.90
42913;DHT22;50720;54.324;18.558;2023-11-22T15:03:01;2.10;99.90
42913;DHT22;50720;54.324;18.558;2023-11-22T15:05:45;2.10;99.90
42913;DHT22;50720;54.324;18.558;2023-11-22T15:08:28;2.10;99.90
42913;DHT22;50720;54.324;18.558;2023-11-22T15:11:14;2.10;99.90
42913;DHT22;50720;54.324;18.558;2023-11-22T15:13:58;2.10;99.90
42913;DHT22;50720;54.324;18.558;2023-11-22T15:16:41;2.00;99.90
42913;DHT22;50720;54.324;18.558;2023-11-22T15:19:27;2.00;99.90
42913;DHT22;50720;54.324;18.558;2023-11-22T15:22:10;2.10;99.90
42913;DHT22;50720;54.324;18.558;2023-11-22T15:24:54;2.10;99.90
42913;DHT22;50720;54.324;18.558;2023-11-22T15:30:21;2.10;99.90
42913;DHT22;50720;54.324;18.558;2023-11-22T15:33:05;2.10;99.90
42913;DHT22;50720;54.324;18.558;2023-11-22T15:35:50;2.10;99.90
42913;DHT22;50720;54.324;18.558;2023-11-22T15:38:35;2.00;99.90
42913;DHT22;50720;54.324;18.558;2023-11-22T15:41:19;2.10;99.90
42913;DHT22;50720;54.324;18.558;2023-11-22T15:44:08;2.10;91.60
42913;DHT22;50720;54.324;18.558;2023-11-22T15:46:55;2.00;90.80
42913;DHT22;50720;54.324;18.558;2023-11-22T15:49:38;2.00;75.60
42913;DHT22;50720;54.324;18.558;2023-11-22T15:52:23;2.00;58.50
42913;DHT22;50720;54.324;18.558;2023-11-22T15:55:08;2.10;17.40
42913;DHT22;50720;54.324;18.558;2023-11-22T15:57:53;2.00;12.90
42913;DHT22;50720;54.324;18.558;2023-11-22T16:00:37;2.00;1.00
42913;DHT22;50720;54.324;18.558;2023-11-22T16:03:20;2.00;1.00
42913;DHT22;50720;54.324;18.558;2023-11-22T16:06:04;2.10;1.00
42913;DHT22;50720;54.324;18.558;2023-11-22T16:08:51;2.10;1.00
42913;DHT22;50720;54.324;18.558;2023-11-22T16:11:35;2.00;1.00
42913;DHT22;50720;54.324;18.558;2023-11-22T16:14:18;2.10;1.00
42913;DHT22;50720;54.324;18.558;2023-11-22T16:17:02;2.10;1.00
42913;DHT22;50720;54.324;18.558;2023-11-22T16:19:47;2.10;1.00
42913;DHT22;50720;54.324;18.558;2023-11-22T16:22:30;2.00;1.00
42913;DHT22;50720;54.324;18.558;2023-11-22T16:25:15;2.00;1.00
42913;DHT22;50720;54.324;18.558;2023-11-22T16:28:04;2.00;1.00
42913;DHT22;50720;54.324;18.558;2023-11-22T16:30:48;2.00;1.00
42913;DHT22;50720;54.324;18.558;2023-11-22T16:33:31;2.00;1.00
42913;DHT22;50720;54.324;18.558;2023-11-22T16:36:15;2.00;1.00
42913;DHT22;50720;54.324;18.558;2023-11-22T16:39:02;2.00;1.00
42913;DHT22;50720;54.324;18.558;2023-11-22T16:42:02;2.00;1.00
42913;DHT22;50720;54.324;18.558;2023-11-22T16:44:47;2.10;1.00
42913;DHT22;50720;54.324;18.558;2023-11-22T16:47:30;2.20;1.00
42913;DHT22;50720;54.324;18.558;2023-11-22T16:50:14;2.10;99.90
42913;DHT22;50720;54.324;18.558;2023-11-22T16:52:58;2.10;99.90
42913;DHT22;50720;54.324;18.558;2023-11-22T16:55:43;2.00;99.90
42913;DHT22;50720;54.324;18.558;2023-11-22T16:58:28;2.10;99.90
42913;DHT22;50720;54.324;18.558;2023-11-22T17:01:11;2.10;99.90
42913;DHT22;50720;54.324;18.558;2023-11-22T17:03:55;2.10;99.90
42913;DHT22;50720;54.324;18.558;2023-11-22T17:06:39;2.10;99.90
42913;DHT22;50720;54.324;18.558;2023-11-22T17:12:07;2.10;12.90
42913;DHT22;50720;54.324;18.558;2023-11-22T17:28:30;2.10;1.00
42913;DHT22;50720;54.324;18.558;2023-11-22T17:31:15;2.00;1.00
42913;DHT22;50720;54.324;18.558;2023-11-22T17:33:58;2.00;23.50
42913;DHT22;50720;54.324;18.558;2023-11-22T17:36:42;2.00;39.30
42913;DHT22;50720;54.324;18.558;2023-11-22T17:39:25;2.00;1.00
42913;DHT22;50720;54.324;18.558;2023-11-22T17:42:08;2.00;1.00
42913;DHT22;50720;54.324;18.558;2023-11-22T17:44:52;2.00;8.60
42913;DHT22;50720;54.324;18.558;2023-11-22T17:47:37;2.00;1.00
42913;DHT22;50720;54.324;18.558;2023-11-22T17:50:21;1.90;1.00